TimeCDT,TemperatureF,Dew PointF,Humidity,Sea Level PressureIn,VisibilityMPH,Wind Direction,Wind SpeedMPH,Gust SpeedMPH,PrecipitationIn,Events,Conditions,WindDirDegrees,DateUTC
12:52 AM,37.9,30.0,73,30.14,10.0,NW,8.1,-,N/A,,Clear,320,2012-10-29 05:52:00
1:52 AM,37.0,30.9,79,30.14,10.0,NNW,8.1,-,N/A,,Clear,330,2012-10-29 06:52:00
2:52 AM,37.0,30.0,76,30.13,10.0,NNW,8.1,-,N/A,,Clear,330,2012-10-29 07:52:00
3:52 AM,36.0,30.0,79,30.13,10.0,NW,8.1,-,N/A,,Clear,320,2012-10-29 08:52:00
4:52 AM,36.0,30.0,79,30.14,10.0,NNW,8.1,-,N/A,,Clear,340,2012-10-29 09:52:00
5:52 AM,35.1,30.0,82,30.14,10.0,NNW,8.1,-,N/A,,Clear,340,2012-10-29 10:52:00
6:52 AM,35.1,30.0,82,30.16,10.0,NNW,8.1,-,N/A,,Clear,330,2012-10-29 11:52:00
7:52 AM,35.1,30.9,85,30.17,10.0,NW,6.9,-,N/A,,Clear,320,2012-10-29 12:52:00
8:52 AM,41.0,33.1,73,30.17,10.0,NNW,15.0,-,N/A,,Clear,340,2012-10-29 13:52:00
9:52 AM,45.0,30.9,58,30.17,10.0,North,18.4,-,N/A,,Clear,350,2012-10-29 14:52:00
10:52 AM,48.0,28.0,46,30.17,10.0,North,17.3,28.8,N/A,,Clear,10,2012-10-29 15:52:00
11:52 AM,51.1,25.0,36,30.15,10.0,NNW,17.3,27.6,N/A,,Clear,340,2012-10-29 16:52:00
12:52 PM,53.1,25.0,34,30.11,10.0,North,19.6,29.9,N/A,,Clear,350,2012-10-29 17:52:00
1:52 PM,55.0,25.0,31,30.08,10.0,NNW,24.2,32.2,N/A,,Clear,330,2012-10-29 18:52:00
2:52 PM,55.0,24.1,30,30.06,10.0,NNW,20.7,32.2,N/A,,Clear,330,2012-10-29 19:52:00
3:52 PM,55.0,24.1,30,30.05,10.0,North,19.6,29.9,N/A,,Clear,350,2012-10-29 20:52:00
5:52 PM,50.0,27.0,41,30.03,10.0,NNW,12.7,-,N/A,,Clear,330,2012-10-29 22:52:00
6:52 PM,48.9,27.0,43,30.03,10.0,NNW,16.1,24.2,N/A,,Clear,340,2012-10-29 23:52:00
7:52 PM,48.0,28.0,46,30.02,10.0,NW,15.0,-,N/A,,Clear,320,2012-10-30 00:52:00
8:52 PM,46.0,28.0,50,30.02,10.0,NW,13.8,-,N/A,,Clear,310,2012-10-30 01:52:00
9:52 PM,46.0,30.0,54,30.01,10.0,NW,16.1,-,N/A,,Clear,320,2012-10-30 02:52:00
10:52 PM,45.0,28.9,53,29.99,10.0,NW,15.0,-,N/A,,Clear,310,2012-10-30 03:52:00
11:52 PM,44.1,28.9,55,29.97,10.0,NW,16.1,-,N/A,,Clear,310,2012-10-30 04:52:00